sensor_id;sensor_type;location;lat;lon;timestamp;pressure;altitude;pressure_sealevel;temperature;humidity
70015;BME280;57358;51.094;6.760;2023-04-19T00:02:11;102017.69;;;10.11;94.15
70015;BME280;57358;51.094;6.760;2023-04-19T00:04:38;102022.94;;;10.11;94.40
70015;BME280;57358;51.094;6.760;2023-04-19T00:07:05;102016.78;;;10.12;94.01
70015;BME280;57358;51.094;6.760;2023-04-19T00:09:32;102006.34;;;10.11;94.44
70015;BME280;57358;51.094;6.760;2023-04-19T00:12:00;101981.56;;;9.90;94.84
70015;BME280;57358;51.094;6.760;2023-04-19T00:14:27;102013.41;;;10.09;95.16
70015;BME280;57358;51.094;6.760;2023-04-19T00:16:53;101943.63;;;9.72;94.49
70015;BME280;57358;51.094;6.760;2023-04-19T00:19:20;101955.81;;;9.74;94.70
70015;BME280;57358;51.094;6.760;2023-04-19T00:21:48;102016.88;;;10.09;95.11
70015;BME280;57358;51.094;6.760;2023-04-19T00:24:14;102006.34;;;10.11;95.11
70015;BME280;57358;51.094;6.760;2023-04-19T00:26:41;101987.75;;;9.89;95.47
70015;BME280;57358;51.094;6.760;2023-04-19T00:29:07;101931.53;;;9.68;95.03
70015;BME280;57358;51.094;6.760;2023-04-19T00:31:34;101629.56;;;7.78;95.38
70015;BME280;57358;51.094;6.760;2023-04-19T00:34:01;102020.34;;;10.10;96.23
70015;BME280;57358;51.094;6.760;2023-04-19T00:36:28;102010.72;;;10.10;96.17
70015;BME280;57358;51.094;6.760;2023-04-19T00:38:54;102009.84;;;10.10;96.55
70015;BME280;57358;51.094;6.760;2023-04-19T00:41:21;102022.16;;;10.08;97.22
70015;BME280;57358;51.094;6.760;2023-04-19T00:43:47;102026.53;;;10.07;97.28
70015;BME280;57358;51.094;6.760;2023-04-19T00:46:14;102018.72;;;10.06;97.07
70015;BME280;57358;51.094;6.760;2023-04-19T00:48:41;102011.06;;;9.98;97.74
70015;BME280;57358;51.094;6.760;2023-04-19T00:51:07;101982.75;;;9.79;97.68
70015;BME280;57358;51.094;6.760;2023-04-19T00:53:36;102019.56;;;10.06;97.17
70015;BME280;57358;51.094;6.760;2023-04-19T00:56:04;102005.56;;;10.07;97.29
70015;BME280;57358;51.094;6.760;2023-04-19T00:58:31;101967.19;;;9.73;97.13
70015;BME280;57358;51.094;6.760;2023-04-19T01:00:57;102011.75;;;10.05;97.37
70015;BME280;57358;51.094;6.760;2023-04-19T01:03:25;102010.03;;;10.04;97.46
70015;BME280;57358;51.094;6.760;2023-04-19T01:05:55;102012.75;;;10.01;98.26
70015;BME280;57358;51.094;6.760;2023-04-19T01:08:22;102011.88;;;10.00;98.68
70015;BME280;57358;51.094;6.760;2023-04-19T01:10:49;102032.00;;;9.99;99.28
70015;BME280;57358;51.094;6.760;2023-04-19T01:13:15;102012.84;;;9.97;99.27
70015;BME280;57358;51.094;6.760;2023-04-19T01:15:42;102012.84;;;9.97;99.30
70015;BME280;57358;51.094;6.760;2023-04-19T01:18:09;102014.59;;;9.97;99.80
70015;BME280;57358;51.094;6.760;2023-04-19T01:20:36;102021.69;;;9.93;100.00
70015;BME280;57358;51.094;6.760;2023-04-19T01:23:03;102019.16;;;9.90;100.00
70015;BME280;57358;51.094;6.760;2023-04-19T01:25:29;102011.25;;;9.92;100.00
70015;BME280;57358;51.094;6.760;2023-04-19T01:27:56;102013.03;;;9.90;100.00
70015;BME280;57358;51.094;6.760;2023-04-19T01:30:22;102009.56;;;9.89;100.00
70015;BME280;57358;51.094;6.760;2023-04-19T01:32:48;102013.00;;;9.91;100.00
70015;BME280;57358;51.094;6.760;2023-04-19T01:35:15;102006.00;;;9.92;100.00
70015;BME280;57358;51.094;6.760;2023-04-19T01:37:42;102006.88;;;9.92;100.00
70015;BME280;57358;51.094;6.760;2023-04-19T01:40:08;102013.03;;;9.90;100.00
70015;BME280;57358;51.094;6.760;2023-04-19T01:42:35;102012.16;;;9.91;100.00
70015;BME280;57358;51.094;6.760;2023-04-19T01:45:01;102008.69;;;9.90;100.00
70015;BME280;57358;51.094;6.760;2023-04-19T01:47:28;102014.78;;;9.91;100.00
70015;BME280;57358;51.094;6.760;2023-04-19T01:49:55;101873.88;;;9.05;100.00
70015;BME280;57358;51.094;6.760;2023-04-19T01:52:21;102006.94;;;9.89;100.00
70015;BME280;57358;51.094;6.760;2023-04-19T01:54:48;101947.72;;;9.51;100.00
70015;BME280;57358;51.094;6.760;2023-04-19T01:57:14;101845.53;;;8.88;100.00
70015;BME280;57358;51.094;6.760;2023-04-19T01:59:41;102004.31;;;9.89;100.00
70015;BME280;57358;51.094;6.760;2023-04-19T02:02:08;102012.34;;;9.85;100.00
70015;BME280;57358;51.094;6.760;2023-04-19T02:04:35;102009.75;;;9.83;100.00
70015;BME280;57358;51.094;6.760;2023-04-19T02:07:01;102002.84;;;9.81;100.00
70015;BME280;57358;51.094;6.760;2023-04-19T02:09:27;102000.25;;;9.79;100.00
70015;BME280;57358;51.094;6.760;2023-04-19T02:11:54;101976.34;;;9.58;100.00
70015;BME280;57358;51.094;6.760;2023-04-19T02:14:20;101997.22;;;9.62;100.00
70015;BME280;57358;51.094;6.760;2023-04-19T02:16:47;102006.16;;;9.54;100.00
70015;BME280;57358;51.094;6.760;2023-04-19T02:19:14;102008.00;;;9.51;100.00
70015;BME280;57358;51.094;6.760;2023-04-19T02:21:40;101925.41;;;9.05;100.00
70015;BME280;57358;51.094;6.760;2023-04-19T02:24:06;102011.31;;;9.57;100.00
70015;BME280;57358;51.094;6.760;2023-04-19T02:26:33;102016.53;;;9.59;100.00
70015;BME280;57358;51.094;6.760;2023-04-19T02:28:59;102014.88;;;9.55;100.00
70015;BME280;57358;51.094;6.760;2023-04-19T02:31:26;101900.44;;;8.90;100.00
70015;BME280;57358;51.094;6.760;2023-04-19T02:33:52;102006.84;;;9.61;100.00
70015;BME280;57358;51.094;6.760;2023-04-19T02:36:19;102016.22;;;9.70;100.00
70015;BME280;57358;51.094;6.760;2023-04-19T02:38:45;102022.38;;;9.69;100.00
70015;BME280;57358;51.094;6.760;2023-04-19T02:41:14;102018.03;;;9.68;100.00
70015;BME280;57358;51.094;6.760;2023-04-19T02:43:40;102016.19;;;9.71;100.00
70015;BME280;57358;51.094;6.760;2023-04-19T02:46:07;102022.22;;;9.75;100.00
70015;BME280;57358;51.094;6.760;2023-04-19T02:48:33;102014.31;;;9.76;100.00
70015;BME280;57358;51.094;6.760;2023-04-19T02:51:00;102016.97;;;9.75;100.00
70015;BME280;57358;51.094;6.760;2023-04-19T02:53:26;102016.03;;;9.76;100.00
70015;BME280;57358;51.094;6.760;2023-04-19T02:55:53;101952.50;;;9.36;100.00
70015;BME280;57358;51.094;6.760;2023-04-19T02:58:20;102016.94;;;9.76;100.00
70015;BME280;57358;51.094;6.760;2023-04-19T03:00:46;102022.03;;;9.81;100.00
70015;BME280;57358;51.094;6.760;2023-04-19T03:03:12;101869.78;;;8.95;100.00
70015;BME280;57358;51.094;6.760;2023-04-19T03:05:39;102022.09;;;9.78;100.00
70015;BME280;57358;51.094;6.760;2023-04-19T03:08:05;102019.47;;;9.78;100.00
70015;BME280;57358;51.094;6.760;2023-04-19T03:10:32;102021.28;;;9.76;100.00
70015;BME280;57358;51.094;6.760;2023-04-19T03:12:58;101794.34;;;8.44;100.00
70015;BME280;57358;51.094;6.760;2023-04-19T03:15:24;102019.47;;;9.78;100.00
70015;BME280;57358;51.094;6.760;2023-04-19T03:17:51;101972.16;;;9.51;100.00
70015;BME280;57358;51.094;6.760;2023-04-19T03:20:18;102017.78;;;9.77;100.00
70015;BME280;57358;51.094;6.760;2023-04-19T03:22:46;102016.88;;;9.78;100.00
70015;BME280;57358;51.094;6.760;2023-04-19T03:25:12;102021.28;;;9.76;100.00
70015;BME280;57358;51.094;6.760;2023-04-19T03:27:38;101730.84;;;8.03;100.00
70015;BME280;57358;51.094;6.760;2023-04-19T03:30:05;101934.25;;;9.32;100.00
70015;BME280;57358;51.094;6.760;2023-04-19T03:32:32;102006.44;;;9.76;100.00
70015;BME280;57358;51.094;6.760;2023-04-19T03:34:59;101978.97;;;9.58;100.00
70015;BME280;57358;51.094;6.760;2023-04-19T03:37:26;102002.28;;;9.68;100.00
70015;BME280;57358;51.094;6.760;2023-04-19T03:39:52;102009.94;;;9.75;100.00
70015;BME280;57358;51.094;6.760;2023-04-19T03:42:18;102005.63;;;9.74;100.00
70015;BME280;57358;51.094;6.760;2023-04-19T03:44:45;101989.13;;;9.71;100.00
70015;BME280;57358;51.094;6.760;2023-04-19T03:47:11;102004.72;;;9.75;100.00
70015;BME280;57358;51.094;6.760;2023-04-19T03:49:37;101999.47;;;9.75;100.00
70015;BME280;57358;51.094;6.760;2023-04-19T03:52:04;102010.00;;;9.74;100.00
70015;BME280;57358;51.094;6.760;2023-04-19T03:54:30;101993.44;;;9.72;100.00
70015;BME280;57358;51.094;6.760;2023-04-19T03:56:56;101989.28;;;9.65;100.00
70015;BME280;57358;51.094;6.760;2023-04-19T03:59:23;101998.75;;;9.70;100.00
70015;BME280;57358;51.094;6.760;2023-04-19T04:01:50;101945.53;;;9.35;100.00
70015;BME280;57358;51.094;6.760;2023-04-19T04:04:16;101997.06;;;9.68;100.00
70015;BME280;57358;51.094;6.760;2023-04-19T04:06:43;101977.50;;;9.48;100.00
70015;BME280;57358;51.094;6.760;2023-04-19T04:09:10;101912.97;;;9.13;100.00
70015;BME280;57358;51.094;6.760;2023-04-19T04:11:39;101996.19;;;9.67;100.00
70015;BME280;57358;51.094;6.760;2023-04-19T04:14:05;101990.28;;;9.61;100.00
70015;BME280;57358;51.094;6.760;2023-04-19T04:16:32;101997.16;;;9.65;100.00
70015;BME280;57358;51.094;6.760;2023-04-19T04:18:58;101999.78;;;9.65;100.00
70015;BME280;57358;51.094;6.760;2023-04-19T04:21:25;101996.22;;;9.66;100.00
70015;BME280;57358;51.094;6.760;2023-04-19T04:23:52;101955.94;;;9.38;100.00
70015;BME280;57358;51.094;6.760;2023-04-19T04:26:18;101994.53;;;9.65;100.00
70015;BME280;57358;51.094;6.760;2023-04-19T04:28:45;101996.19;;;9.67;100.00
70015;BME280;57358;51.094;6.760;2023-04-19T04:31:11;101925.59;;;9.30;100.00
70015;BME280;57358;51.094;6.760;2023-04-19T04:33:38;101915.38;;;9.21;100.00
70015;BME280;57358;51.094;6.760;2023-04-19T04:36:05;101989.41;;;9.60;100.00
70015;BME280;57358;51.094;6.760;2023-04-19T04:38:34;101958.50;;;9.40;100.00
70015;BME280;57358;51.094;6.760;2023-04-19T04:41:02;101913.91;;;9.10;100.00
70015;BME280;57358;51.094;6.760;2023-04-19T04:43:28;101999.69;;;9.68;100.00
70015;BME280;57358;51.094;6.760;2023-04-19T04:45:55;101953.34;;;9.37;100.00
70015;BME280;57358;51.094;6.760;2023-04-19T04:48:23;101981.50;;;9.62;100.00
70015;BME280;57358;51.094;6.760;2023-04-19T04:50:50;101992.72;;;9.67;100.00
70015;BME280;57358;51.094;6.760;2023-04-19T04:53:16;101988.31;;;9.69;100.00
70015;BME280;57358;51.094;6.760;2023-04-19T04:55:42;101910.16;;;9.19;100.00
70015;BME280;57358;51.094;6.760;2023-04-19T04:58:09;101905.72;;;9.23;100.00
70015;BME280;57358;51.094;6.760;2023-04-19T05:00:35;101936.69;;;9.39;100.00
70015;BME280;57358;51.094;6.760;2023-04-19T05:03:02;101978.66;;;9.69;100.00
70015;BME280;57358;51.094;6.760;2023-04-19T05:05:29;101982.22;;;9.68;100.00
70015;BME280;57358;51.094;6.760;2023-04-19T05:07:55;101950.38;;;9.49;100.00
70015;BME280;57358;51.094;6.760;2023-04-19T05:10:22;101934.91;;;9.40;100.00
70015;BME280;57358;51.094;6.760;2023-04-19T05:12:48;101951.84;;;9.59;100.00
70015;BME280;57358;51.094;6.760;2023-04-19T05:15:14;101964.78;;;9.66;100.00
70015;BME280;57358;51.094;6.760;2023-04-19T05:17:41;101963.91;;;9.67;100.00
70015;BME280;57358;51.094;6.760;2023-04-19T05:20:08;101947.25;;;9.68;100.00
70015;BME280;57358;51.094;6.760;2023-04-19T05:22:35;101936.84;;;9.66;100.00
70015;BME280;57358;51.094;6.760;2023-04-19T05:25:01;101925.47;;;9.66;100.00
70015;BME280;57358;51.094;6.760;2023-04-19T05:27:28;101882.44;;;9.43;99.42
70015;BME280;57358;51.094;6.760;2023-04-19T05:29:54;101915.09;;;9.63;99.56
70015;BME280;57358;51.094;6.760;2023-04-19T05:32:21;101915.09;;;9.63;99.35
70015;BME280;57358;51.094;6.760;2023-04-19T05:34:47;101847.16;;;9.24;98.02
70015;BME280;57358;51.094;6.760;2023-04-19T05:37:14;101916.81;;;9.62;98.00
70015;BME280;57358;51.094;6.760;2023-04-19T05:39:41;101904.50;;;9.66;96.17
70015;BME280;57358;51.094;6.760;2023-04-19T05:42:09;101832.22;;;9.27;95.52
70015;BME280;57358;51.094;6.760;2023-04-19T05:44:36;101910.69;;;9.63;95.63
70015;BME280;57358;51.094;6.760;2023-04-19T05:47:02;101896.84;;;9.58;95.45
70015;BME280;57358;51.094;6.760;2023-04-19T05:49:29;101902.97;;;9.58;93.84
70015;BME280;57358;51.094;6.760;2023-04-19T05:51:55;101882.00;;;9.58;91.50
70015;BME280;57358;51.094;6.760;2023-04-19T05:54:22;101810.50;;;9.24;91.04
70015;BME280;57358;51.094;6.760;2023-04-19T05:56:48;101864.53;;;9.57;89.44
70015;BME280;57358;51.094;6.760;2023-04-19T05:59:15;101868.03;;;9.58;89.43
70015;BME280;57358;51.094;6.760;2023-04-19T06:01:41;101808.63;;;9.29;88.26
70015;BME280;57358;51.094;6.760;2023-04-19T06:04:08;101852.25;;;9.59;87.26
70015;BME280;57358;51.094;6.760;2023-04-19T06:06:34;101843.59;;;9.57;86.97
70015;BME280;57358;51.094;6.760;2023-04-19T06:09:03;101786.84;;;9.27;86.09
70015;BME280;57358;51.094;6.760;2023-04-19T06:11:30;101824.66;;;9.48;85.24
70015;BME280;57358;51.094;6.760;2023-04-19T06:14:09;101824.47;;;9.54;85.89
70015;BME280;57358;51.094;6.760;2023-04-19T06:16:35;101836.34;;;9.66;86.19
70015;BME280;57358;51.094;6.760;2023-04-19T06:19:02;101836.16;;;9.72;86.36
70015;BME280;57358;51.094;6.760;2023-04-19T06:21:31;101836.84;;;9.78;86.13
70015;BME280;57358;51.094;6.760;2023-04-19T06:23:58;101840.28;;;9.81;86.46
70015;BME280;57358;51.094;6.760;2023-04-19T06:26:24;101827.75;;;9.90;85.76
70015;BME280;57358;51.094;6.760;2023-04-19T06:28:51;101818.88;;;9.94;84.13
70015;BME280;57358;51.094;6.760;2023-04-19T06:31:17;101789.16;;;9.94;82.10
70015;BME280;57358;51.094;6.760;2023-04-19T06:33:44;101789.03;;;9.98;81.58
70015;BME280;57358;51.094;6.760;2023-04-19T06:36:11;101690.72;;;9.57;80.72
70015;BME280;57358;51.094;6.760;2023-04-19T06:38:40;101775.56;;;10.09;80.93
70015;BME280;57358;51.094;6.760;2023-04-19T06:41:06;101770.06;;;10.17;78.97
70015;BME280;57358;51.094;6.760;2023-04-19T06:43:34;101750.63;;;10.23;79.40
70015;BME280;57358;51.094;6.760;2023-04-19T06:46:01;101741.84;;;10.24;78.14
70015;BME280;57358;51.094;6.760;2023-04-19T06:48:28;101721.25;;;10.13;77.90
70015;BME280;57358;51.094;6.760;2023-04-19T06:50:55;101700.13;;;10.16;76.07
70015;BME280;57358;51.094;6.760;2023-04-19T06:53:22;101686.88;;;10.21;74.58
70015;BME280;57358;51.094;6.760;2023-04-19T06:55:57;101559.88;;;9.52;73.41
70015;BME280;57358;51.094;6.760;2023-04-19T06:58:24;101660.69;;;10.19;73.03
70015;BME280;57358;51.094;6.760;2023-04-19T07:00:50;101572.16;;;9.75;72.58
70015;BME280;57358;51.094;6.760;2023-04-19T07:03:17;101679.50;;;10.57;72.88
70015;BME280;57358;51.094;6.760;2023-04-19T07:05:43;101649.34;;;10.44;71.87
70015;BME280;57358;51.094;6.760;2023-04-19T07:08:10;101692.16;;;10.69;71.95
70015;BME280;57358;51.094;6.760;2023-04-19T07:10:36;101562.13;;;10.12;71.07
70015;BME280;57358;51.094;6.760;2023-04-19T07:13:02;101647.63;;;10.66;72.08
70015;BME280;57358;51.094;6.760;2023-04-19T07:15:29;101626.00;;;10.60;70.85
70015;BME280;57358;51.094;6.760;2023-04-19T07:17:55;101652.81;;;10.91;71.29
70015;BME280;57358;51.094;6.760;2023-04-19T07:20:22;101541.88;;;10.41;70.43
70015;BME280;57358;51.094;6.760;2023-04-19T07:22:48;101553.03;;;10.69;68.99
70015;BME280;57358;51.094;6.760;2023-04-19T07:25:15;101573.06;;;10.94;68.02
70015;BME280;57358;51.094;6.760;2023-04-19T07:27:41;101570.03;;;10.83;68.34
70015;BME280;57358;51.094;6.760;2023-04-19T07:30:08;101567.00;;;10.92;67.62
70015;BME280;57358;51.094;6.760;2023-04-19T07:32:34;101534.16;;;10.82;66.99
70015;BME280;57358;51.094;6.760;2023-04-19T07:35:01;101580.84;;;10.97;67.85
70015;BME280;57358;51.094;6.760;2023-04-19T07:37:28;101556.75;;;10.86;67.59
70015;BME280;57358;51.094;6.760;2023-04-19T07:39:55;101538.50;;;10.83;67.33
70015;BME280;57358;51.094;6.760;2023-04-19T07:42:23;101508.94;;;10.77;66.47
70015;BME280;57358;51.094;6.760;2023-04-19T07:44:49;101519.88;;;10.89;65.96
70015;BME280;57358;51.094;6.760;2023-04-19T07:47:16;101375.59;;;9.97;66.44
70015;BME280;57358;51.094;6.760;2023-04-19T07:49:43;101580.88;;;11.17;66.76
70015;BME280;57358;51.094;6.760;2023-04-19T07:52:09;101560.41;;;11.46;66.32
70015;BME280;57358;51.094;6.760;2023-04-19T07:54:36;101501.22;;;11.37;64.40
70015;BME280;57358;51.094;6.760;2023-04-19T07:57:04;101518.03;;;11.33;65.45
70015;BME280;57358;51.094;6.760;2023-04-19T07:59:30;101486.81;;;11.46;64.33
70015;BME280;57358;51.094;6.760;2023-04-19T08:01:58;101490.22;;;11.48;64.04
70015;BME280;57358;51.094;6.760;2023-04-19T08:04:25;101449.13;;;11.47;62.90
70015;BME280;57358;51.094;6.760;2023-04-19T08:06:53;101426.03;;;11.54;62.59
70015;BME280;57358;51.094;6.760;2023-04-19T08:09:20;101373.84;;;11.26;61.74
70015;BME280;57358;51.094;6.760;2023-04-19T08:11:46;101412.94;;;11.52;61.80
70015;BME280;57358;51.094;6.760;2023-04-19T08:14:13;101419.56;;;12.01;61.20
70015;BME280;57358;51.094;6.760;2023-04-19T08:16:56;101355.03;;;11.93;59.90
70015;BME280;57358;51.094;6.760;2023-04-19T08:19:42;101354.56;;;11.84;59.39
70015;BME280;57358;51.094;6.760;2023-04-19T08:22:08;101372.84;;;11.87;60.63
70015;BME280;57358;51.094;6.760;2023-04-19T08:24:35;101392.22;;;12.22;60.37
70015;BME280;57358;51.094;6.760;2023-04-19T08:27:02;101450.25;;;12.38;61.26
70015;BME280;57358;51.094;6.760;2023-04-19T08:29:28;101240.19;;;11.92;57.47
70015;BME280;57358;51.094;6.760;2023-04-19T08:31:55;101270.34;;;12.22;56.87
70015;BME280;57358;51.094;6.760;2023-04-19T08:34:21;101293.97;;;12.23;56.83
70015;BME280;57358;51.094;6.760;2023-04-19T08:36:48;101220.72;;;12.14;56.46
70015;BME280;57358;51.094;6.760;2023-04-19T08:39:29;101198.00;;;12.13;55.30
70015;BME280;57358;51.094;6.760;2023-04-19T08:42:09;101177.53;;;12.01;54.67
70015;BME280;57358;51.094;6.760;2023-04-19T08:44:55;101232.97;;;12.15;55.41
70015;BME280;57358;51.094;6.760;2023-04-19T08:47:43;101208.25;;;12.00;56.47
70015;BME280;57358;51.094;6.760;2023-04-19T08:50:28;101244.16;;;12.36;56.40
70015;BME280;57358;51.094;6.760;2023-04-19T08:52:58;101181.31;;;12.30;54.24
70015;BME280;57358;51.094;6.760;2023-04-19T08:55:41;101108.31;;;12.00;53.35
70015;BME280;57358;51.094;6.760;2023-04-19T08:58:28;101175.22;;;12.12;54.77
70015;BME280;57358;51.094;6.760;2023-04-19T09:01:17;101136.84;;;12.08;53.87
70015;BME280;57358;51.094;6.760;2023-04-19T09:04:01;101147.56;;;12.21;53.54
70015;BME280;57358;51.094;6.760;2023-04-19T09:06:47;101201.03;;;12.38;53.66
70015;BME280;57358;51.094;6.760;2023-04-19T09:09:14;101219.69;;;12.51;53.32
70015;BME280;57358;51.094;6.760;2023-04-19T09:11:47;101167.16;;;12.32;52.61
70015;BME280;57358;51.094;6.760;2023-04-19T09:14:15;101249.00;;;12.78;53.05
70015;BME280;57358;51.094;6.760;2023-04-19T09:16:43;101210.22;;;12.65;52.15
70015;BME280;57358;51.094;6.760;2023-04-19T09:19:10;101169.63;;;12.35;51.79
70015;BME280;57358;51.094;6.760;2023-04-19T09:21:50;101217.00;;;12.53;52.45
70015;BME280;57358;51.094;6.760;2023-04-19T09:24:36;101111.31;;;12.10;51.06
70015;BME280;57358;51.094;6.760;2023-04-19T09:27:30;101278.69;;;12.65;53.12
70015;BME280;57358;51.094;6.760;2023-04-19T09:29:59;101176.84;;;12.32;51.91
70015;BME280;57358;51.094;6.760;2023-04-19T09:32:26;101170.53;;;12.34;50.59
70015;BME280;57358;51.094;6.760;2023-04-19T09:34:56;101164.09;;;11.89;51.06
70015;BME280;57358;51.094;6.760;2023-04-19T09:37:23;101263.31;;;12.40;52.26
70015;BME280;57358;51.094;6.760;2023-04-19T09:40:23;101207.19;;;12.22;51.61
70015;BME280;57358;51.094;6.760;2023-04-19T09:42:49;101233.03;;;12.31;51.58
70015;BME280;57358;51.094;6.760;2023-04-19T09:45:19;101256.09;;;12.43;51.41
70015;BME280;57358;51.094;6.760;2023-04-19T09:48:01;101199.81;;;12.46;49.52
70015;BME280;57358;51.094;6.760;2023-04-19T09:50:29;101178.81;;;12.11;50.22
70015;BME280;57358;51.094;6.760;2023-04-19T09:52:58;101268.88;;;12.51;51.06
70015;BME280;57358;51.094;6.760;2023-04-19T09:55:25;101176.31;;;12.25;49.59
70015;BME280;57358;51.094;6.760;2023-04-19T09:57:55;101206.38;;;12.54;49.90
70015;BME280;57358;51.094;6.760;2023-04-19T10:00:22;101231.81;;;12.71;49.40
70015;BME280;57358;51.094;6.760;2023-04-19T10:02:53;101192.69;;;12.48;48.91
70015;BME280;57358;51.094;6.760;2023-04-19T10:05:23;101201.38;;;12.15;49.78
70015;BME280;57358;51.094;6.760;2023-04-19T10:07:52;101322.59;;;12.99;49.60
70015;BME280;57358;51.094;6.760;2023-04-19T10:10:25;101347.34;;;13.12;50.56
70015;BME280;57358;51.094;6.760;2023-04-19T10:13:00;101228.66;;;12.65;49.18
70015;BME280;57358;51.094;6.760;2023-04-19T10:15:31;101287.19;;;12.70;49.83
70015;BME280;57358;51.094;6.760;2023-04-19T10:18:17;101139.06;;;11.81;49.51
70015;BME280;57358;51.094;6.760;2023-04-19T10:21:03;101236.78;;;12.77;49.16
70015;BME280;57358;51.094;6.760;2023-04-19T10:23:32;101197.81;;;12.67;47.40
70015;BME280;57358;51.094;6.760;2023-04-19T10:25:58;101251.88;;;12.56;49.03
70015;BME280;57358;51.094;6.760;2023-04-19T10:28:28;101209.91;;;12.87;46.97
70015;BME280;57358;51.094;6.760;2023-04-19T10:31:01;101097.19;;;12.28;47.03
70015;BME280;57358;51.094;6.760;2023-04-19T10:33:31;101169.66;;;12.85;45.78
70015;BME280;57358;51.094;6.760;2023-04-19T10:36:00;100944.09;;;11.37;45.64
70015;BME280;57358;51.094;6.760;2023-04-19T10:38:36;101130.13;;;12.53;45.56
70015;BME280;57358;51.094;6.760;2023-04-19T10:41:03;101114.06;;;12.57;44.55
70015;BME280;57358;51.094;6.760;2023-04-19T10:43:32;101128.03;;;12.91;43.60
70015;BME280;57358;51.094;6.760;2023-04-19T10:48:58;101161.19;;;13.11;43.66
70015;BME280;57358;51.094;6.760;2023-04-19T10:51:35;101195.53;;;13.26;43.86
70015;BME280;57358;51.094;6.760;2023-04-19T10:54:07;101303.16;;;13.35;44.92
70015;BME280;57358;51.094;6.760;2023-04-19T11:01:33;101137.53;;;13.10;42.44
70015;BME280;57358;51.094;6.760;2023-04-19T11:04:03;101094.63;;;12.92;41.18
70015;BME280;57358;51.094;6.760;2023-04-19T11:06:30;101206.91;;;13.26;42.58
70015;BME280;57358;51.094;6.760;2023-04-19T11:08:57;101103.22;;;12.95;41.76
70015;BME280;57358;51.094;6.760;2023-04-19T11:11:23;101178.38;;;13.34;42.21
70015;BME280;57358;51.094;6.760;2023-04-19T11:13:56;101064.78;;;13.07;40.22
70015;BME280;57358;51.094;6.760;2023-04-19T11:16:25;101289.53;;;13.74;41.73
70015;BME280;57358;51.094;6.760;2023-04-19T11:19:14;101105.56;;;13.48;39.38
70015;BME280;57358;51.094;6.760;2023-04-19T11:21:41;101021.31;;;13.14;37.70
70015;BME280;57358;51.094;6.760;2023-04-19T11:24:08;101049.13;;;13.20;37.51
70015;BME280;57358;51.094;6.760;2023-04-19T11:26:35;101078.59;;;13.27;37.66
70015;BME280;57358;51.094;6.760;2023-04-19T11:29:01;101042.19;;;13.03;38.23
70015;BME280;57358;51.094;6.760;2023-04-19T11:31:31;101033.75;;;13.12;36.99
70015;BME280;57358;51.094;6.760;2023-04-19T11:33:58;101062.91;;;13.41;36.51
70015;BME280;57358;51.094;6.760;2023-04-19T11:36:26;101091.38;;;13.34;37.47
70015;BME280;57358;51.094;6.760;2023-04-19T11:38:53;101067.56;;;13.36;36.63
70015;BME280;57358;51.094;6.760;2023-04-19T11:41:20;101154.38;;;13.23;38.56
70015;BME280;57358;51.094;6.760;2023-04-19T11:43:46;101161.56;;;13.37;37.98
70015;BME280;57358;51.094;6.760;2023-04-19T11:46:13;101103.97;;;13.45;36.81
70015;BME280;57358;51.094;6.760;2023-04-19T11:48:50;100985.63;;;12.78;36.56
70015;BME280;57358;51.094;6.760;2023-04-19T11:51:18;101194.44;;;13.46;38.14
70015;BME280;57358;51.094;6.760;2023-04-19T11:53:44;101067.44;;;12.75;38.01
70015;BME280;57358;51.094;6.760;2023-04-19T11:56:11;101098.19;;;12.91;38.34
70015;BME280;57358;51.094;6.760;2023-04-19T11:58:40;101135.75;;;13.10;37.92
70015;BME280;57358;51.094;6.760;2023-04-19T12:01:19;101110.09;;;12.98;37.81
70015;BME280;57358;51.094;6.760;2023-04-19T12:03:51;101070.91;;;12.76;37.44
70015;BME280;57358;51.094;6.760;2023-04-19T12:06:26;101135.59;;;13.13;37.00
70015;BME280;57358;51.094;6.760;2023-04-19T12:08:54;101154.97;;;13.28;37.33
70015;BME280;57358;51.094;6.760;2023-04-19T12:11:23;101085.88;;;13.07;36.90
70015;BME280;57358;51.094;6.760;2023-04-19T12:14:11;101153.63;;;13.21;36.58
70015;BME280;57358;51.094;6.760;2023-04-19T12:16:38;101058.16;;;12.52;37.12
70015;BME280;57358;51.094;6.760;2023-04-19T12:19:12;101206.13;;;13.08;38.79
70015;BME280;57358;51.094;6.760;2023-04-19T12:21:44;101198.53;;;13.35;37.25
70015;BME280;57358;51.094;6.760;2023-04-19T12:24:13;101316.09;;;13.55;39.66
70015;BME280;57358;51.094;6.760;2023-04-19T12:26:53;101128.38;;;13.01;37.90
70015;BME280;57358;51.094;6.760;2023-04-19T12:29:30;101139.75;;;13.02;37.03
70015;BME280;57358;51.094;6.760;2023-04-19T12:31:56;101208.47;;;13.30;37.46
70015;BME280;57358;51.094;6.760;2023-04-19T12:34:23;101301.72;;;13.45;39.88
70015;BME280;57358;51.094;6.760;2023-04-19T12:36:49;101123.59;;;12.76;37.79
70015;BME280;57358;51.094;6.760;2023-04-19T12:39:16;101228.53;;;13.17;37.93
70015;BME280;57358;51.094;6.760;2023-04-19T12:41:43;101313.25;;;13.59;38.65
70015;BME280;57358;51.094;6.760;2023-04-19T12:44:09;101320.84;;;13.81;38.97
70015;BME280;57358;51.094;6.760;2023-04-19T12:46:36;101207.28;;;13.52;37.37
70015;BME280;57358;51.094;6.760;2023-04-19T12:49:02;101390.78;;;13.72;40.26
70015;BME280;57358;51.094;6.760;2023-04-19T12:51:29;101207.94;;;13.24;39.35
70015;BME280;57358;51.094;6.760;2023-04-19T12:53:55;101276.88;;;13.49;40.19
70015;BME280;57358;51.094;6.760;2023-04-19T12:56:22;101247.59;;;13.70;37.65
70015;BME280;57358;51.094;6.760;2023-04-19T12:58:48;101165.69;;;13.25;37.92
70015;BME280;57358;51.094;6.760;2023-04-19T13:01:14;101302.47;;;13.79;39.18
70015;BME280;57358;51.094;6.760;2023-04-19T13:03:41;101249.28;;;13.71;38.72
70015;BME280;57358;51.094;6.760;2023-04-19T13:06:08;101408.94;;;14.10;40.60